Healdsburg, California
Current Conditions -  °F | °C
As of 11:53 AM on Thursday 30 Oct 2014 (Local Time) from KSTS Reporting Station
Broken Clouds Broken Clouds  
Wind Chill: 68°   Ceiling: 25000
Heat Index: 68°   Visibility: 10mi
Dew Point: 54°   Wind: 0mph
Humidity: 61%   Direction: NA
Pressure: 29.91"   Gusts: NA
Location:  38.61°N, 122.86°W
Report Text: KSTS 301853Z 00000KT 10SM BKN250 20/12 A2991 RMK AO2 SLP124 T02000122
Loading
Personal Weather Stations






























Interactive Weather Map
Tropical Storm Tracking
New forecast layout! Learn more

10-Day Weather Forecast

Advertisements
Track Severe Weather on mobile